Terminal Aerodrome Forecast
Issued by NWS

Home | Current Version | Previous Version | Text Only | Print | Product List | Glossary Off
Versions: 1 2 3 4 5 6 7 8 9 10 11 12 13 14 15 16 17 18 19 20

000
FTUS43 KICT 050520
TAFSLN
TAF
KSLN 050520Z 0506/0606 15013KT P6SM SCT100 BKN250
     FM050900 15008KT P6SM BKN080
     FM051400 18012G22KT P6SM BKN100
     FM051700 18012G22KT P6SM SCT120=

USA.gov is the U.S. government's official web portal to all federal, state and local government web resources and services.